LFOP/URO METAR and TAF weather

Enter ICAO airport designator
Station Type Date Time Source
LFOP METAR 2021/10/24 20:30 UTC NOAA

LFOP 242030Z AUTO 16008KT 9999 BKN030 OVC039 11/08 Q1019


Station Type Date Time Source
LFOP Decoded METAR 2021/10/24 20:30 UTC NOAA

Rouen, France (LFOP) 49-23N 001-11E 157M
Oct 24, 2021 - 04:30 PM EDT / 2021.10.24 2030 UTC
Wind: from the SSE (160 degrees) at 9 MPH (8 KT):0
Visibility: greater than 7 mile(s):0
Sky conditions: overcast
Temperature: 51 F (11 C)
Dew Point: 46 F (8 C)
Relative Humidity: 81%
Pressure (altimeter): 30.09 in. Hg (1019 hPa)
ob: LFOP 242030Z AUTO 16008KT 9999 BKN030 OVC039 11/08 Q1019
cycle: 20

Station Type Date Time Source
LFOP TAF 2021/10/24 20:06 UTC NOAA

TAF TAF LFOP 242000Z 2420/2518 CNL

Example: see airport list